Time;durP1;ratioP1;P1;durP2;ratioP2;P2;SDS_P1;SDS_P2;PMS_P1;PMS_P2;Temp;Humidity;BMP_temperature;BMP_pressure;BME280_temperature;BME280_humidity;BME280_pressure;Samples;Min_cycle;Max_cycle;Signal;HPM_P1;HPM_P2
2023/04/04 00:01:24;;;;;;;6.67;4.90;;;;;;;8.86;70.41;100248.59;5062151;28;20894;-80
2023/04/04 00:03:50;;;;;;;6.22;4.90;;;;;;;8.71;70.68;100278.38;5044710;28;20386;-80
2023/04/04 00:06:19;;;;;;;5.30;4.65;;;;;;;8.57;70.35;100245.56;5054392;28;20401;-80
2023/04/04 00:08:45;;;;;;;5.15;4.65;;;;;;;8.53;69.85;100246.84;5060947;28;20385;-81
2023/04/04 00:11:12;;;;;;;6.05;4.70;;;;;;;8.51;69.58;100243.56;5073789;28;20455;-80
2023/04/04 00:13:38;;;;;;;6.35;5.30;;;;;;;8.48;70.25;100248.34;5038728;28;20526;-79
2023/04/04 00:16:04;;;;;;;5.28;4.78;;;;;;;8.37;69.44;100262.69;5059577;28;20525;-80
2023/04/04 00:18:31;;;;;;;7.53;5.13;;;;;;;8.55;69.37;100222.91;5088812;28;20488;-80
2023/04/04 00:20:57;;;;;;;6.30;4.78;;;;;;;8.45;69.44;100232.88;5076393;28;20454;-77
2023/04/04 00:23:22;;;;;;;6.37;4.83;;;;;;;8.32;69.56;100234.16;5092466;28;20987;-78
2023/04/04 00:25:51;;;;;;;6.20;4.75;;;;;;;8.23;70.03;100229.88;5092948;28;20762;-78
2023/04/04 00:28:20;;;;;;;6.20;4.43;;;;;;;8.00;69.75;100241.09;5094108;28;20373;-77
2023/04/04 00:30:46;;;;;;;4.85;4.05;;;;;;;7.91;69.98;100252.66;5095813;28;20389;-77
2023/04/04 00:33:13;;;;;;;5.97;4.00;;;;;;;7.87;70.06;100261.03;5094928;28;20865;-78
2023/04/04 00:35:38;;;;;;;4.28;3.47;;;;;;;7.89;70.03;100252.00;5097579;28;20377;-78
2023/04/04 00:38:04;;;;;;;4.68;3.97;;;;;;;7.94;69.81;100240.94;5093943;28;20746;-77
2023/04/04 00:40:29;;;;;;;4.57;3.55;;;;;;;7.93;69.36;100247.22;5072842;28;20751;-77
2023/04/04 00:42:56;;;;;;;4.87;3.40;;;;;;;7.87;69.65;100269.81;5094433;28;20377;-77
2023/04/04 00:45:22;;;;;;;5.10;3.35;;;;;;;7.92;69.70;100264.03;5093703;28;20408;-77
2023/04/04 00:47:49;;;;;;;3.92;3.00;;;;;;;7.83;68.96;100295.69;5095681;28;20381;-78
2023/04/04 00:50:15;;;;;;;3.10;2.80;;;;;;;7.64;70.20;100251.94;5095136;28;20417;-80
2023/04/04 00:52:41;;;;;;;4.20;2.97;;;;;;;7.73;69.98;100244.06;5095097;28;20385;-80
2023/04/04 00:55:07;;;;;;;5.47;2.83;;;;;;;7.57;70.92;100250.94;5095404;28;20381;-81
2023/04/04 00:57:33;;;;;;;3.58;2.85;;;;;;;7.64;70.90;100249.31;5095566;28;20392;-80
2023/04/04 01:00:03;;;;;;;5.20;3.10;;;;;;;7.52;71.43;100253.25;5094881;28;20389;-80
2023/04/04 01:02:28;;;;;;;3.78;3.38;;;;;;;7.73;70.79;100229.06;5095415;28;20385;-80
2023/04/04 01:04:54;;;;;;;3.67;3.08;;;;;;;7.73;70.56;100236.16;5094779;28;20856;-79
2023/04/04 01:07:20;;;;;;;4.13;2.97;;;;;;;7.73;70.83;100231.69;5094441;28;20413;-80
2023/04/04 01:09:46;;;;;;;5.05;3.35;;;;;;;7.69;71.40;100233.00;5094518;28;20389;-80
2023/04/04 01:12:12;;;;;;;4.07;3.53;;;;;;;7.72;71.18;100253.78;5095511;28;20385;-79
2023/04/04 01:14:37;;;;;;;5.83;3.77;;;;;;;7.80;71.16;100223.97;5095466;28;20381;-81
2023/04/04 01:17:04;;;;;;;4.73;3.23;;;;;;;7.81;70.76;100222.94;5095182;28;20908;-81
2023/04/04 01:19:33;;;;;;;4.57;3.38;;;;;;;7.81;70.27;100221.16;5076349;28;20403;-80
2023/04/04 01:22:18;;;;;;;4.90;3.53;;;;;;;7.81;70.03;100226.44;5095986;28;20440;-81
2023/04/04 01:24:46;;;;;;;6.20;3.40;;;;;;;7.79;69.82;100223.09;5094629;28;20378;-80
2023/04/04 01:27:12;;;;;;;5.07;3.75;;;;;;;7.72;70.26;100235.31;5095246;28;20497;-81
2023/04/04 01:29:37;;;;;;;4.18;3.17;;;;;;;7.70;70.39;100234.66;5095343;28;20431;-82
2023/04/04 01:32:13;;;;;;;4.27;2.83;;;;;;;7.61;70.89;100233.00;5094619;28;20381;-82
2023/04/04 01:35:01;;;;;;;3.72;2.78;;;;;;;7.55;70.91;100223.09;5086327;28;20854;-80
2023/04/04 01:37:47;;;;;;;3.40;2.30;;;;;;;7.44;71.19;100225.03;5088287;28;20915;-81
2023/04/04 01:40:33;;;;;;;3.55;2.67;;;;;;;7.54;70.74;100227.53;5092873;28;20388;-81
2023/04/04 01:42:59;;;;;;;4.50;2.60;;;;;;;7.34;71.24;100220.91;5095671;28;20867;-81
2023/04/04 01:45:25;;;;;;;3.55;2.75;;;;;;;7.54;70.73;100200.34;5095129;28;20405;-81
2023/04/04 01:47:50;;;;;;;3.90;2.42;;;;;;;7.36;70.65;100226.84;5094823;28;20420;-80
2023/04/04 01:50:16;;;;;;;3.33;2.00;;;;;;;7.11;71.67;100199.56;5094888;28;20377;-82
2023/04/04 01:52:41;;;;;;;2.67;2.40;;;;;;;7.35;70.40;100185.66;5096594;28;20377;-82
2023/04/04 01:55:08;;;;;;;3.03;2.00;;;;;;;7.46;70.54;100195.88;5075473;28;20384;-82
2023/04/04 01:57:33;;;;;;;3.40;1.95;;;;;;;7.24;70.93;100216.59;5102455;28;20377;-83
2023/04/04 01:59:59;;;;;;;3.55;2.22;;;;;;;7.24;71.15;100199.97;5097015;28;20892;-83
2023/04/04 02:02:25;;;;;;;2.90;2.13;;;;;;;7.27;70.60;100189.06;5096801;28;20382;-83
2023/04/04 02:04:51;;;;;;;2.45;1.85;;;;;;;7.30;70.61;100206.41;5096358;28;20409;-82
2023/04/04 02:07:17;;;;;;;2.07;1.87;;;;;;;7.20;70.90;100181.00;5107208;28;20420;-82
2023/04/04 02:09:42;;;;;;;2.43;2.10;;;;;;;7.12;71.07;100202.06;5114392;28;20402;-82
2023/04/04 02:12:08;;;;;;;3.60;1.67;;;;;;;7.03;71.20;100190.66;5116280;28;20377;-82
2023/04/04 02:14:34;;;;;;;3.00;2.00;;;;;;;7.30;70.99;100188.75;5093740;28;20403;-82
2023/04/04 02:17:00;;;;;;;2.20;1.80;;;;;;;7.12;70.89;100203.88;5083592;28;20484;-82
2023/04/04 02:19:26;;;;;;;2.43;1.70;;;;;;;6.99;71.63;100223.59;5080490;28;20386;-81
2023/04/04 02:21:51;;;;;;;2.47;1.90;;;;;;;6.91;71.63;100201.66;5080162;28;20373;-81
2023/04/04 02:24:16;;;;;;;2.83;1.90;;;;;;;7.29;71.00;100197.63;5098067;28;21197;-81
2023/04/04 02:26:42;;;;;;;2.03;1.73;;;;;;;7.18;70.77;100204.03;5097721;28;20404;-81
2023/04/04 02:29:07;;;;;;;2.33;1.60;;;;;;;6.95;71.61;100198.56;5097282;28;20892;-84
2023/04/04 02:31:33;;;;;;;2.30;2.03;;;;;;;7.15;71.28;100185.09;5096986;28;20399;-81
2023/04/04 02:33:59;;;;;;;2.40;1.75;;;;;;;7.18;70.96;100208.50;5096269;28;20892;-81
2023/04/04 02:36:24;;;;;;;2.17;1.67;;;;;;;7.27;70.62;100192.56;5096136;28;20377;-82
2023/04/04 02:38:50;;;;;;;2.30;1.77;;;;;;;7.14;70.71;100204.53;5096725;28;20384;-82
2023/04/04 02:41:16;;;;;;;2.10;1.80;;;;;;;7.46;69.89;100182.69;5096362;28;20390;-82
2023/04/04 02:43:41;;;;;;;3.00;1.50;;;;;;;7.27;69.93;100194.34;5077363;28;20436;-83
2023/04/04 02:46:07;;;;;;;1.90;1.70;;;;;;;7.02;70.59;100199.56;5096273;28;20401;-83
2023/04/04 02:48:33;;;;;;;2.90;1.70;;;;;;;7.07;70.53;100196.44;5094705;28;20463;-84
2023/04/04 02:50:58;;;;;;;2.00;1.75;;;;;;;7.14;70.51;100199.25;5094571;28;20675;-84
2023/04/04 02:53:24;;;;;;;2.77;1.70;;;;;;;7.19;70.23;100196.97;5077919;28;20890;-83
2023/04/04 02:55:49;;;;;;;2.22;1.65;;;;;;;7.28;70.05;100194.19;5093757;28;20373;-83
2023/04/04 02:58:15;;;;;;;3.00;2.03;;;;;;;7.37;69.75;100205.59;5093941;28;20381;-84
2023/04/04 03:00:40;;;;;;;2.57;1.90;;;;;;;7.27;69.53;100215.44;5073584;28;20794;-83
2023/04/04 03:03:06;;;;;;;2.60;2.00;;;;;;;7.30;69.88;100212.50;5089610;28;20378;-82
2023/04/04 03:05:31;;;;;;;2.50;1.70;;;;;;;7.51;69.01;100213.84;5074780;28;20730;-82
2023/04/04 03:07:58;;;;;;;2.90;1.70;;;;;;;7.44;69.07;100226.88;5072288;28;20379;-82
2023/04/04 03:10:25;;;;;;;2.55;1.95;;;;;;;7.39;68.68;100223.88;5071399;28;20429;-83
2023/04/04 03:12:51;;;;;;;3.47;1.65;;;;;;;7.33;69.33;100237.69;5097607;28;20401;-83
2023/04/04 03:15:17;;;;;;;1.88;1.63;;;;;;;7.27;69.36;100240.00;5115285;28;20393;-84
2023/04/04 03:17:43;;;;;;;1.70;1.60;;;;;;;7.39;68.85;100253.69;5088373;28;20415;-84
2023/04/04 03:20:10;;;;;;;3.45;2.28;;;;;;;7.60;68.38;100255.91;5076429;28;20389;-84
2023/04/04 03:22:36;;;;;;;3.53;2.00;;;;;;;7.60;68.35;100253.28;5096293;28;20365;-85
2023/04/04 03:25:02;;;;;;;4.40;1.97;;;;;;;7.81;67.50;100262.53;5097804;28;20391;-84
2023/04/04 03:27:31;;;;;;;3.50;1.90;;;;;;;7.81;67.50;100257.25;5094247;28;20381;-84
2023/04/04 03:29:57;;;;;;;4.18;2.70;;;;;;;7.82;67.23;100267.66;5076084;28;20753;-85
2023/04/04 03:32:22;;;;;;;3.30;2.05;;;;;;;7.83;67.23;100263.19;5092836;28;20845;-84
2023/04/04 03:34:47;;;;;;;2.77;2.00;;;;;;;8.08;66.45;100276.41;5093083;28;20472;-84
2023/04/04 03:37:13;;;;;;;3.60;2.43;;;;;;;8.18;65.88;100287.66;5091961;28;20373;-83
2023/04/04 03:39:38;;;;;;;2.40;1.88;;;;;;;8.30;65.96;100288.97;5076249;28;20383;-84
2023/04/04 03:42:04;;;;;;;2.20;1.50;;;;;;;7.94;66.38;100291.91;5095456;28;20751;-83
2023/04/04 03:44:29;;;;;;;1.70;1.60;;;;;;;7.75;67.44;100293.03;5093317;28;20370;-82
2023/04/04 03:46:55;;;;;;;1.58;1.45;;;;;;;7.89;67.12;100299.50;5087726;28;20393;-83
2023/04/04 03:49:20;;;;;;;3.10;2.13;;;;;;;8.07;66.67;100298.50;5091623;28;20838;-83
2023/04/04 03:51:46;;;;;;;2.90;2.00;;;;;;;8.05;66.69;100288.13;5091799;28;21126;-83
2023/04/04 03:54:12;;;;;;;3.00;1.90;;;;;;;8.05;66.56;100296.06;5091724;28;20729;-83
2023/04/04 03:56:37;;;;;;;1.90;1.70;;;;;;;7.68;67.50;100305.22;5099182;28;20407;-85
2023/04/04 03:59:03;;;;;;;2.30;1.83;;;;;;;7.65;67.76;100290.56;5097772;28;20377;-85
2023/04/04 04:01:28;;;;;;;2.30;1.50;;;;;;;7.71;67.51;100294.34;5095415;28;20403;-85
2023/04/04 04:03:54;;;;;;;2.50;2.00;;;;;;;7.69;67.18;100291.06;5096792;28;20424;-84
2023/04/04 04:06:19;;;;;;;5.18;2.22;;;;;;;7.85;67.41;100292.91;5058436;28;20403;-82
2023/04/04 04:08:45;;;;;;;4.43;2.67;;;;;;;7.98;66.94;100302.97;5069653;28;20493;-83
2023/04/04 04:11:11;;;;;;;5.10;2.20;;;;;;;7.97;66.80;100307.41;5071384;28;20772;-84
2023/04/04 04:13:37;;;;;;;5.03;3.20;;;;;;;8.04;66.45;100302.31;5095670;28;20428;-83
2023/04/04 04:16:03;;;;;;;2.83;2.05;;;;;;;7.93;66.66;100308.72;5080381;28;20397;-83
2023/04/04 04:18:29;;;;;;;4.28;2.50;;;;;;;7.99;66.78;100297.50;5096058;28;20373;-83
2023/04/04 04:21:00;;;;;;;6.28;2.80;;;;;;;7.94;66.98;100307.75;5096948;28;20377;-83
2023/04/04 04:23:26;;;;;;;2.92;2.17;;;;;;;7.92;66.53;100314.16;5097247;28;20396;-82
2023/04/04 04:25:51;;;;;;;4.20;2.30;;;;;;;7.92;66.91;100316.81;5077366;28;20399;-81
2023/04/04 04:28:17;;;;;;;3.33;1.77;;;;;;;7.95;66.62;100322.59;5083808;28;20381;-83
2023/04/04 04:30:43;;;;;;;2.80;1.43;;;;;;;7.81;66.96;100316.16;5082264;28;20849;-83
2023/04/04 04:33:08;;;;;;;2.05;1.20;;;;;;;7.68;66.85;100317.59;5078079;28;20384;-82
2023/04/04 04:35:38;;;;;;;2.20;1.40;;;;;;;7.66;67.11;100315.91;5089937;28;20383;-83
2023/04/04 04:38:07;;;;;;;2.47;1.50;;;;;;;7.70;67.00;100316.44;5077966;28;20480;-82
2023/04/04 04:40:36;;;;;;;2.78;1.60;;;;;;;7.69;67.16;100321.88;5095199;28;20386;-83
2023/04/04 04:43:02;;;;;;;2.88;1.83;;;;;;;7.75;66.86;100327.31;5096333;28;20365;-84
2023/04/04 04:45:27;;;;;;;2.87;1.63;;;;;;;7.73;66.74;100328.50;5095472;28;20737;-84
2023/04/04 04:47:53;;;;;;;2.50;1.60;;;;;;;7.70;67.08;100323.53;5095774;28;20384;-84
2023/04/04 04:50:18;;;;;;;3.22;1.90;;;;;;;7.55;67.65;100331.25;5095667;28;20388;-83
2023/04/04 04:52:44;;;;;;;5.10;2.20;;;;;;;7.65;67.29;100340.66;5096080;28;20415;-83
2023/04/04 04:55:10;;;;;;;3.80;2.95;;;;;;;7.85;67.12;100338.59;5077646;28;20382;-84
2023/04/04 04:57:37;;;;;;;4.60;2.45;;;;;;;7.79;67.25;100330.47;5077278;28;20377;-84
2023/04/04 05:00:03;;;;;;;4.70;2.92;;;;;;;7.93;66.97;100336.94;5078075;28;20867;-84
2023/04/04 05:02:30;;;;;;;4.20;2.92;;;;;;;7.91;66.86;100352.13;5079048;28;20374;-84
2023/04/04 05:04:55;;;;;;;4.90;2.53;;;;;;;7.85;67.12;100348.31;5096043;28;20472;-85
2023/04/04 05:07:22;;;;;;;4.25;2.67;;;;;;;7.76;66.93;100346.63;5095933;28;20968;-85
2023/04/04 05:09:47;;;;;;;3.95;2.58;;;;;;;7.80;67.31;100354.06;5077845;28;20381;-84
2023/04/04 05:12:13;;;;;;;3.17;2.30;;;;;;;7.88;66.94;100349.78;5102723;28;20378;-85
2023/04/04 05:14:38;;;;;;;3.78;2.72;;;;;;;7.92;67.01;100346.66;5098832;28;20373;-85
2023/04/04 05:17:04;;;;;;;6.37;3.13;;;;;;;7.90;66.79;100358.38;5097149;28;20405;-85
2023/04/04 05:19:30;;;;;;;6.30;2.50;;;;;;;7.80;66.95;100356.69;5096652;28;20381;-85
2023/04/04 05:21:55;;;;;;;3.97;2.40;;;;;;;7.87;67.27;100358.69;5093758;28;20383;-86
2023/04/04 05:24:22;;;;;;;8.70;5.50;;;;;;;7.89;66.96;100362.00;5081563;28;20455;-85
2023/04/04 05:26:47;;;;;;;6.13;4.20;;;;;;;7.93;66.98;100369.44;5078367;28;20427;-84
2023/04/04 05:29:13;;;;;;;4.65;2.47;;;;;;;8.09;66.66;100362.56;5097254;28;20385;-84
2023/04/04 05:31:38;;;;;;;3.73;2.10;;;;;;;8.00;66.65;100356.44;5079553;28;20441;-85
2023/04/04 05:34:07;;;;;;;5.00;2.30;;;;;;;8.08;67.07;100361.69;5080460;28;20374;-85
2023/04/04 05:36:36;;;;;;;3.08;2.42;;;;;;;8.09;66.89;100366.00;5096291;28;20850;-84
2023/04/04 05:39:05;;;;;;;4.35;3.00;;;;;;;8.15;66.51;100365.34;5078103;28;20857;-84
2023/04/04 05:41:31;;;;;;;7.05;2.97;;;;;;;8.18;66.31;100374.78;5080305;28;20370;-87
2023/04/04 05:43:56;;;;;;;5.35;3.25;;;;;;;7.96;66.70;100358.56;5097436;28;20441;-85
2023/04/04 05:46:22;;;;;;;3.92;2.80;;;;;;;8.08;66.85;100371.44;5098908;28;20425;-86
2023/04/04 05:48:49;;;;;;;5.47;2.30;;;;;;;7.93;66.85;100365.97;5098914;28;20378;-83
2023/04/04 05:51:15;;;;;;;2.50;1.90;;;;;;;7.75;67.18;100372.19;5092954;28;20378;-86
2023/04/04 05:53:41;;;;;;;3.60;2.20;;;;;;;7.81;67.03;100368.91;5077769;28;20381;-86
2023/04/04 05:56:06;;;;;;;3.37;2.37;;;;;;;7.79;67.32;100370.88;5073456;28;20433;-83
2023/04/04 05:58:32;;;;;;;2.72;2.03;;;;;;;7.80;67.51;100366.44;5090539;28;20758;-85
2023/04/04 06:00:59;;;;;;;2.83;2.27;;;;;;;7.90;67.07;100361.00;5087443;28;20405;-85
2023/04/04 06:03:24;;;;;;;4.15;2.15;;;;;;;7.96;67.53;100370.91;5079484;28;20386;-85
2023/04/04 06:05:53;;;;;;;4.57;3.47;;;;;;;8.01;67.21;100374.75;5096597;28;20434;-84
2023/04/04 06:08:18;;;;;;;2.63;1.83;;;;;;;8.02;66.97;100362.38;5096815;28;20379;-86
2023/04/04 06:10:44;;;;;;;2.53;2.10;;;;;;;8.06;66.77;100373.44;5082787;28;20404;-83
2023/04/04 06:13:09;;;;;;;2.75;1.73;;;;;;;8.00;67.03;100361.72;5084560;28;20405;-85
2023/04/04 06:15:35;;;;;;;2.30;1.93;;;;;;;8.01;67.08;100353.63;5095660;28;20439;-83
2023/04/04 06:18:01;;;;;;;4.63;2.50;;;;;;;8.07;67.47;100361.88;5094968;28;20441;-84
2023/04/04 06:20:27;;;;;;;4.57;3.23;;;;;;;7.94;67.34;100362.34;5096070;28;20374;-85
2023/04/04 06:22:53;;;;;;;3.53;2.20;;;;;;;7.96;67.41;100384.09;5094563;28;20405;-84
2023/04/04 06:25:18;;;;;;;3.50;2.50;;;;;;;8.04;67.39;100363.84;5094551;28;20401;-84
2023/04/04 06:27:44;;;;;;;3.27;2.40;;;;;;;8.10;66.88;100372.09;5095173;28;20361;-85
2023/04/04 06:30:10;;;;;;;3.37;2.20;;;;;;;7.92;67.53;100382.78;5094358;28;20422;-85
2023/04/04 06:32:35;;;;;;;3.35;2.17;;;;;;;7.82;67.62;100365.28;5077522;28;20369;-85
2023/04/04 06:35:01;;;;;;;3.37;2.40;;;;;;;8.11;67.00;100371.94;5095723;28;20420;-85
2023/04/04 06:37:27;;;;;;;3.03;2.10;;;;;;;7.97;67.35;100388.41;4925033;28;20444;-86
2023/04/04 06:39:52;;;;;;;1.70;1.40;;;;;;;7.72;67.55;100382.22;5056986;28;20393;-86
2023/04/04 06:42:18;;;;;;;5.67;2.27;;;;;;;7.84;67.26;100387.06;5077303;28;20380;-85
2023/04/04 06:44:43;;;;;;;4.10;2.13;;;;;;;7.76;67.18;100388.84;5077181;28;20792;-84
2023/04/04 06:47:09;;;;;;;4.72;2.25;;;;;;;7.75;66.97;100388.00;5081967;28;20391;-86
2023/04/04 06:49:34;;;;;;;2.90;1.60;;;;;;;7.77;67.09;100390.50;5076408;28;20377;-85
2023/04/04 06:52:00;;;;;;;2.70;1.30;;;;;;;7.74;66.92;100386.38;5077095;28;20454;-85
2023/04/04 06:54:25;;;;;;;1.77;1.60;;;;;;;7.78;66.49;100390.34;5075726;28;20375;-83
2023/04/04 06:56:51;;;;;;;1.65;1.27;;;;;;;7.80;66.27;100393.66;5095532;28;20373;-84
2023/04/04 06:59:17;;;;;;;3.53;1.77;;;;;;;7.75;66.32;100401.22;5077400;28;20377;-83
2023/04/04 07:01:43;;;;;;;6.72;2.47;;;;;;;7.90;66.64;100406.69;5095401;28;20370;-81
2023/04/04 07:04:09;;;;;;;3.30;1.73;;;;;;;8.13;66.54;100403.47;5085588;28;20399;-81
2023/04/04 07:06:34;;;;;;;2.00;1.60;;;;;;;8.07;66.08;100404.09;5111898;28;20872;-81
2023/04/04 07:09:00;;;;;;;1.90;1.60;;;;;;;8.00;66.74;100411.84;5073268;28;20482;-81
2023/04/04 07:11:26;;;;;;;3.08;1.90;;;;;;;7.99;67.24;100412.81;5089070;28;20434;-82
2023/04/04 07:13:51;;;;;;;3.25;2.08;;;;;;;7.96;66.95;100415.78;5078720;28;20384;-83
2023/04/04 07:16:17;;;;;;;4.27;1.60;;;;;;;8.01;66.71;100414.34;5076749;28;20408;-84
2023/04/04 07:18:43;;;;;;;1.57;1.40;;;;;;;7.88;66.62;100418.41;5093803;28;20380;-83
2023/04/04 07:21:08;;;;;;;2.83;1.70;;;;;;;7.83;67.11;100417.09;5093427;28;20373;-83
2023/04/04 07:23:34;;;;;;;3.20;1.63;;;;;;;7.95;66.54;100427.34;5093141;28;20758;-83
2023/04/04 07:26:00;;;;;;;2.67;1.30;;;;;;;7.89;67.28;100415.63;5093071;28;20405;-84
2023/04/04 07:28:25;;;;;;;1.40;1.00;;;;;;;7.84;66.94;100423.19;5092071;28;20373;-85
2023/04/04 07:30:51;;;;;;;1.45;1.00;;;;;;;7.84;67.58;100431.09;5095356;28;20869;-86
2023/04/04 07:33:16;;;;;;;2.60;1.40;;;;;;;7.89;66.87;100433.28;5091993;28;20361;-84
2023/04/04 07:35:42;;;;;;;1.50;1.20;;;;;;;7.85;66.53;100435.41;5092679;28;20379;-86
2023/04/04 07:38:09;;;;;;;3.08;1.48;;;;;;;8.01;66.96;100439.88;5095282;28;20926;-83
2023/04/04 07:40:34;;;;;;;3.40;1.98;;;;;;;8.10;67.08;100443.38;5097437;28;20404;-83
2023/04/04 07:43:00;;;;;;;3.87;2.00;;;;;;;8.29;66.89;100440.47;5080888;28;20706;-82
2023/04/04 07:45:25;;;;;;;5.13;2.57;;;;;;;8.45;66.75;100444.19;5097953;28;20369;-84
2023/04/04 07:47:51;;;;;;;4.37;2.37;;;;;;;8.53;66.44;100452.91;5098563;28;20430;-83
2023/04/04 07:50:16;;;;;;;2.47;1.33;;;;;;;8.26;65.99;100464.56;5098257;28;20711;-86
2023/04/04 07:52:48;;;;;;;1.98;1.30;;;;;;;8.19;66.30;100458.25;5097130;28;20373;-84
2023/04/04 07:55:13;;;;;;;2.67;1.77;;;;;;;8.19;66.23;100463.53;5096916;28;20496;-84
2023/04/04 07:57:39;;;;;;;4.27;2.10;;;;;;;8.14;66.31;100473.75;5097479;28;20920;-84
2023/04/04 08:00:08;;;;;;;4.35;2.13;;;;;;;8.22;66.12;100460.59;5080240;28;20365;-85
2023/04/04 08:02:37;;;;;;;4.30;2.92;;;;;;;8.35;65.40;100465.41;5080533;28;20434;-85
2023/04/04 08:05:03;;;;;;;3.25;1.27;;;;;;;8.28;66.07;100469.69;5097517;28;20433;-85
2023/04/04 08:07:28;;;;;;;3.33;1.58;;;;;;;8.29;65.97;100460.78;5098751;28;20776;-86
2023/04/04 08:09:54;;;;;;;2.72;1.52;;;;;;;8.24;66.04;100470.00;5080073;28;20366;-84
2023/04/04 08:12:20;;;;;;;2.03;1.70;;;;;;;8.35;65.53;100474.16;5099156;28;20366;-86
2023/04/04 08:14:46;;;;;;;3.47;1.70;;;;;;;8.49;66.07;100478.00;5098188;28;20373;-84
2023/04/04 08:17:11;;;;;;;2.90;2.00;;;;;;;8.54;65.89;100482.81;5097015;28;20405;-83
2023/04/04 08:19:37;;;;;;;2.88;1.70;;;;;;;8.59;65.74;100477.88;5098258;28;20707;-84
2023/04/04 08:22:02;;;;;;;2.70;1.30;;;;;;;8.41;65.20;100488.53;5083368;28;20385;-86
2023/04/04 08:24:28;;;;;;;3.07;1.60;;;;;;;8.48;65.40;100484.31;5104940;28;20376;-85
2023/04/04 08:26:53;;;;;;;1.55;1.27;;;;;;;8.53;65.18;100481.97;5100885;28;20475;-85
2023/04/04 08:29:19;;;;;;;2.97;1.30;;;;;;;8.39;65.34;100488.69;5082785;28;20464;-86
2023/04/04 08:31:45;;;;;;;2.72;1.52;;;;;;;8.56;65.13;100483.47;5080397;28;20460;-84
2023/04/04 08:34:10;;;;;;;1.33;1.00;;;;;;;8.39;65.04;100485.22;5099420;28;20378;-85
2023/04/04 08:36:36;;;;;;;2.37;1.33;;;;;;;8.37;65.59;100487.19;5081919;28;20459;-87
2023/04/04 08:39:02;;;;;;;2.17;1.40;;;;;;;8.34;65.58;100498.91;5084153;28;20366;-85
2023/04/04 08:41:29;;;;;;;2.67;1.33;;;;;;;8.21;65.87;100507.31;5101451;28;20373;-86
2023/04/04 08:43:56;;;;;;;3.90;1.50;;;;;;;8.02;66.21;100500.44;5081273;28;20401;-87
2023/04/04 08:46:24;;;;;;;1.73;1.20;;;;;;;8.11;66.24;100506.59;5097706;28;20405;-87
2023/04/04 08:48:51;;;;;;;2.55;1.30;;;;;;;8.06;66.28;100503.59;5080448;28;20381;-86
2023/04/04 08:51:19;;;;;;;3.50;2.20;;;;;;;7.91;67.24;100513.09;5097085;28;20479;-86
2023/04/04 08:53:45;;;;;;;3.88;2.60;;;;;;;8.09;66.69;100513.03;5080481;28;20410;-84
2023/04/04 08:56:12;;;;;;;2.03;1.40;;;;;;;8.12;66.36;100510.91;5097026;28;20763;-85
2023/04/04 08:58:38;;;;;;;2.40;2.03;;;;;;;8.26;66.64;100517.38;5079219;28;20373;-85
2023/04/04 09:01:05;;;;;;;3.67;2.00;;;;;;;8.36;66.19;100515.44;5087647;28;20380;-87
2023/04/04 09:03:33;;;;;;;4.00;2.60;;;;;;;8.39;66.58;100511.63;5101399;28;20381;-85
2023/04/04 09:06:00;;;;;;;5.68;2.10;;;;;;;8.54;66.41;100520.63;5098237;28;20909;-85
2023/04/04 09:08:25;;;;;;;2.40;1.40;;;;;;;8.47;66.59;100513.50;5081359;28;20377;-86
2023/04/04 09:10:52;;;;;;;3.58;2.20;;;;;;;8.57;66.31;100516.81;5116716;28;20377;-86
2023/04/04 09:13:18;;;;;;;3.22;2.03;;;;;;;8.56;66.18;100515.19;5119158;28;20393;-86
2023/04/04 09:15:49;;;;;;;2.60;2.10;;;;;;;8.42;66.86;100522.72;5118379;28;20412;-86
2023/04/04 09:18:15;;;;;;;2.83;2.10;;;;;;;8.51;66.59;100517.47;5113391;28;20400;-85
2023/04/04 09:20:45;;;;;;;3.55;1.70;;;;;;;8.46;66.41;100519.78;5078831;28;20488;-85
2023/04/04 09:23:19;;;;;;;2.83;1.50;;;;;;;8.50;66.94;100531.66;5078890;28;20385;-85
2023/04/04 09:25:49;;;;;;;2.60;1.60;;;;;;;8.44;66.62;100529.69;5077805;28;20398;-86
2023/04/04 09:28:16;;;;;;;3.58;1.80;;;;;;;8.46;67.12;100528.53;5095303;28;20393;-86
2023/04/04 09:30:43;;;;;;;3.80;1.75;;;;;;;8.51;66.77;100530.69;5095235;28;20385;-86
2023/04/04 09:33:14;;;;;;;3.05;1.83;;;;;;;8.55;67.02;100526.72;5076602;28;20447;-84
2023/04/04 09:35:45;;;;;;;3.70;2.20;;;;;;;8.69;66.10;100541.13;5095675;28;20460;-84
2023/04/04 09:38:13;;;;;;;3.45;1.98;;;;;;;8.61;66.11;100539.31;5095481;28;20865;-86
2023/04/04 09:40:41;;;;;;;2.63;1.42;;;;;;;8.53;65.94;100545.38;5077661;28;20790;-85
2023/04/04 09:43:07;;;;;;;5.75;2.30;;;;;;;8.44;66.78;100534.97;5097215;28;20395;-85
2023/04/04 09:45:34;;;;;;;5.38;2.55;;;;;;;8.70;67.05;100543.63;5095745;28;20413;-85
2023/04/04 09:48:01;;;;;;;6.50;1.88;;;;;;;8.77;66.26;100543.81;5096020;28;20377;-85
2023/04/04 09:50:32;;;;;;;6.35;2.20;;;;;;;8.79;66.18;100540.00;5100501;28;20642;-86
2023/04/04 09:52:59;;;;;;;1.30;1.05;;;;;;;8.68;66.12;100540.31;5078924;28;20381;-86
2023/04/04 09:55:37;;;;;;;2.13;1.30;;;;;;;8.80;66.32;100540.81;5079579;28;20369;-85
2023/04/04 09:58:11;;;;;;;1.58;1.15;;;;;;;8.87;65.85;100546.28;5078441;28;20862;-86
2023/04/04 10:00:41;;;;;;;2.50;1.10;;;;;;;9.08;65.97;100551.13;5083961;28;20400;-87
2023/04/04 10:03:07;;;;;;;5.07;2.60;;;;;;;9.13;65.87;100546.16;5081333;28;20393;-87
2023/04/04 10:05:33;;;;;;;3.10;1.50;;;;;;;8.97;65.23;100547.78;5097753;28;20412;-85
2023/04/04 10:07:59;;;;;;;4.32;2.00;;;;;;;9.11;64.92;100548.13;5096822;28;20381;-87
2023/04/04 10:10:30;;;;;;;2.03;1.33;;;;;;;9.13;65.33;100547.00;5078067;28;20719;-86
2023/04/04 10:12:57;;;;;;;2.20;1.30;;;;;;;9.08;64.79;100540.53;5077701;28;20381;-85
2023/04/04 10:15:23;;;;;;;3.08;2.35;;;;;;;9.20;65.21;100541.88;5079146;28;20523;-85
2023/04/04 10:17:54;;;;;;;3.50;2.13;;;;;;;9.22;65.33;100539.88;5094501;28;20405;-86
2023/04/04 10:20:21;;;;;;;2.13;1.35;;;;;;;9.08;65.42;100551.94;5099916;28;20389;-87
2023/04/04 10:22:47;;;;;;;1.65;0.90;;;;;;;9.10;65.00;100552.59;5078528;28;20470;-86
2023/04/04 10:25:13;;;;;;;0.68;0.68;;;;;;;9.18;64.62;100557.91;5082494;28;20373;-84
2023/04/04 10:27:38;;;;;;;1.03;0.83;;;;;;;9.26;64.31;100557.06;5093908;28;20800;-85
2023/04/04 10:30:04;;;;;;;1.60;1.10;;;;;;;9.30;64.09;100552.28;5095196;28;20388;-85
2023/04/04 10:32:48;;;;;;;2.63;1.60;;;;;;;9.32;64.34;100548.47;5074650;28;20403;-84
2023/04/04 10:35:13;;;;;;;2.13;1.35;;;;;;;9.42;64.13;100552.75;5082118;28;20369;-84
2023/04/04 10:37:48;;;;;;;1.73;0.98;;;;;;;9.50;63.85;100560.69;5083129;28;20394;-84
2023/04/04 10:40:16;;;;;;;1.83;1.17;;;;;;;9.55;64.37;100561.84;5089491;28;20379;-83
2023/04/04 10:42:46;;;;;;;1.70;0.90;;;;;;;9.67;63.72;100569.44;5070663;28;20449;-85
2023/04/04 10:45:16;;;;;;;3.28;2.20;;;;;;;9.82;64.11;100574.91;5065625;28;20377;-83
2023/04/04 10:47:43;;;;;;;1.52;1.02;;;;;;;9.82;64.46;100564.31;5085361;28;20406;-83
2023/04/04 10:50:10;;;;;;;1.58;1.20;;;;;;;9.99;63.95;100565.09;5089766;28;20741;-82
2023/04/04 10:52:42;;;;;;;1.52;1.10;;;;;;;10.22;63.88;100579.25;5083044;28;20377;-83
2023/04/04 10:55:11;;;;;;;2.13;1.27;;;;;;;10.37;64.16;100573.25;5090299;28;20741;-83
2023/04/04 10:57:40;;;;;;;1.67;0.90;;;;;;;10.45;63.86;100583.84;5094346;28;20706;-85
2023/04/04 11:00:09;;;;;;;1.27;0.75;;;;;;;10.57;63.71;100582.47;5094993;28;20373;-85
2023/04/04 11:02:51;;;;;;;1.85;0.70;;;;;;;10.33;63.38;100586.03;5073871;28;20381;-84
2023/04/04 11:05:29;;;;;;;3.00;1.42;;;;;;;10.31;63.50;100583.53;5072010;28;20404;-85
2023/04/04 11:08:01;;;;;;;2.13;1.07;;;;;;;10.22;63.35;100581.88;5066478;28;20402;-83
2023/04/04 11:10:34;;;;;;;2.10;1.10;;;;;;;10.23;62.83;100590.69;5091123;28;20425;-85
2023/04/04 11:13:31;;;;;;;2.95;1.40;;;;;;;10.07;62.60;100584.44;5103295;28;20385;-89
2023/04/04 11:16:06;;;;;;;2.50;1.52;;;;;;;10.03;63.34;100591.06;5082605;28;20443;-86
2023/04/04 11:18:31;;;;;;;1.20;0.80;;;;;;;9.91;63.43;100595.06;5078447;28;20400;-86
2023/04/04 11:21:00;;;;;;;1.67;1.00;;;;;;;9.97;62.70;100601.50;5090555;28;20864;-84
2023/04/04 11:23:26;;;;;;;1.88;1.10;;;;;;;10.09;62.25;100600.97;5094655;28;20405;-83
2023/04/04 11:25:56;;;;;;;2.97;0.90;;;;;;;10.25;62.81;100604.59;5068625;28;20956;-83
2023/04/04 11:28:33;;;;;;;10.03;7.40;;;;;;;9.94;61.49;100594.72;5075970;28;20444;-81
2023/04/04 11:31:18;;;;;;;1.17;0.63;;;;;;;9.96;62.71;100603.34;5074733;28;20382;-80
2023/04/04 11:34:08;;;;;;;3.08;1.95;;;;;;;10.14;62.57;100595.19;5084927;28;20407;-81